Time;durP1;ratioP1;P1;durP2;ratioP2;P2;SDS_P1;SDS_P2;PMS_P1;PMS_P2;Temp;Humidity;BMP_temperature;BMP_pressure;BME280_temperature;BME280_humidity;BME280_pressure;Samples;Min_cycle;Max_cycle;Signal;HPM_P1;HPM_P2
2023/08/21 00:01:39;;;;;;;4.13;1.58;;;;;;;-142.75;100.00;76704.16;5040839;28;20104;-64
2023/08/21 00:04:05;;;;;;;5.13;1.33;;;;;;;-142.75;100.00;76706.13;5027257;28;20112;-65
2023/08/21 00:06:30;;;;;;;8.05;1.73;;;;;;;-142.75;100.00;76706.13;5027877;28;20040;-64
2023/08/21 00:08:55;;;;;;;4.13;1.48;;;;;;;-142.75;100.00;76708.09;5027265;28;20039;-64
2023/08/21 00:11:21;;;;;;;3.88;1.58;;;;;;;-142.75;100.00;76717.94;5027008;28;20037;-63
2023/08/21 00:13:48;;;;;;;4.13;1.30;;;;;;;-142.75;100.00;76715.97;5027280;28;20105;-64
2023/08/21 00:16:13;;;;;;;2.33;1.17;;;;;;;-142.75;100.00;76723.84;5027233;28;20021;-64
2023/08/21 00:18:39;;;;;;;4.05;1.58;;;;;;;-142.75;100.00;76719.91;5027113;28;20045;-64
2023/08/21 00:21:04;;;;;;;5.80;1.50;;;;;;;-142.75;100.00;76721.88;5026977;28;20036;-64
2023/08/21 00:23:31;;;;;;;3.13;1.35;;;;;;;-142.75;100.00;76725.81;5026744;28;20034;-63
2023/08/21 00:25:56;;;;;;;5.60;1.45;;;;;;;-142.75;100.00;76723.84;5026650;28;20448;-64
2023/08/21 00:28:22;;;;;;;7.97;2.58;;;;;;;-142.75;100.00;76731.72;5026858;28;20021;-64
2023/08/21 00:30:47;;;;;;;5.75;2.08;;;;;;;-142.75;100.00;76715.97;5026838;28;20230;-63
2023/08/21 00:33:13;;;;;;;5.07;1.83;;;;;;;-142.75;100.00;76712.03;5026690;28;20079;-64
2023/08/21 00:35:38;;;;;;;7.53;1.90;;;;;;;-142.75;100.00;76717.94;5026941;28;20033;-64
2023/08/21 00:38:03;;;;;;;9.82;2.17;;;;;;;-142.75;100.00;76725.81;5026269;28;20071;-63
2023/08/21 00:40:31;;;;;;;3.50;1.55;;;;;;;-142.75;100.00;76735.66;5026441;28;20543;-63
2023/08/21 00:42:56;;;;;;;4.55;1.52;;;;;;;-142.75;100.00;76731.72;5026433;28;20370;-63
2023/08/21 00:45:21;;;;;;;5.40;1.92;;;;;;;-142.75;100.00;76727.78;5026247;28;20033;-64
2023/08/21 00:47:47;;;;;;;4.25;1.15;;;;;;;-142.75;100.00;76743.53;5026492;28;20053;-63
2023/08/21 00:50:13;;;;;;;4.32;1.55;;;;;;;-142.75;100.00;76743.53;5026740;28;20029;-64
2023/08/21 00:52:44;;;;;;;6.45;1.65;;;;;;;-142.75;100.00;76721.88;5026433;28;20017;-64
2023/08/21 00:55:10;;;;;;;5.75;1.33;;;;;;;-142.75;100.00;76706.13;5024963;28;20543;-63
2023/08/21 00:57:36;;;;;;;4.07;1.33;;;;;;;-142.75;100.00;76712.03;5026979;28;20033;-63
2023/08/21 01:00:04;;;;;;;3.08;1.10;;;;;;;-142.75;100.00;76698.25;5026475;28;20029;-64
2023/08/21 01:02:29;;;;;;;6.93;1.20;;;;;;;-142.75;100.00;76704.16;5026591;28;20043;-63
2023/08/21 01:04:55;;;;;;;4.20;1.42;;;;;;;-142.75;100.00;76704.16;5026354;28;20025;-63
2023/08/21 01:07:20;;;;;;;6.85;1.67;;;;;;;-142.75;100.00;76700.22;5026764;28;20022;-63
2023/08/21 01:09:52;;;;;;;6.18;1.75;;;;;;;-142.75;100.00;76698.25;5026168;28;20017;-63
2023/08/21 01:12:39;;;;;;;3.90;1.45;;;;;;;-142.75;100.00;76704.16;5026336;28;20029;-63
2023/08/21 01:15:09;;;;;;;8.23;1.83;;;;;;;-142.75;100.00;76717.94;5025991;28;20021;-63
2023/08/21 01:17:36;;;;;;;6.63;1.40;;;;;;;-142.75;100.00;76715.97;5024927;28;20151;-63
2023/08/21 01:20:03;;;;;;;3.85;1.38;;;;;;;-142.75;100.00;76723.84;5026097;28;20076;-63
2023/08/21 01:22:55;;;;;;;3.55;1.23;;;;;;;-142.75;100.00;76721.88;5026130;28;20037;-64
2023/08/21 01:25:20;;;;;;;2.78;1.00;;;;;;;-142.75;100.00;76723.84;5025881;28;20037;-63
2023/08/21 01:27:48;;;;;;;4.35;1.08;;;;;;;-142.75;100.00;76725.81;5025325;28;20707;-63
2023/08/21 01:30:14;;;;;;;5.85;1.15;;;;;;;-142.75;100.00;76731.72;5025503;28;20032;-63
2023/08/21 01:33:13;;;;;;;3.30;1.25;;;;;;;-142.75;100.00;76715.97;5025556;28;20026;-63
2023/08/21 01:35:38;;;;;;;3.55;1.20;;;;;;;-142.75;100.00;76719.91;5012909;28;20049;-64
2023/08/21 01:38:04;;;;;;;2.28;1.05;;;;;;;-142.75;100.00;76727.78;5026179;28;20424;-63
2023/08/21 01:40:29;;;;;;;4.97;1.10;;;;;;;-142.75;100.00;76725.81;5025265;28;20037;-63
2023/08/21 01:42:55;;;;;;;4.10;1.35;;;;;;;-142.75;100.00;76715.97;5025249;28;20048;-63
2023/08/21 01:45:21;;;;;;;4.05;0.98;;;;;;;-142.75;100.00;76712.03;5025029;28;20035;-63
2023/08/21 01:47:46;;;;;;;3.90;0.80;;;;;;;-142.75;100.00;76704.16;5024997;28;20681;-63
2023/08/21 01:50:12;;;;;;;2.40;0.98;;;;;;;-142.75;100.00;76708.09;5025368;28;20032;-63
2023/08/21 01:52:37;;;;;;;3.72;0.88;;;;;;;-142.75;100.00;76712.03;5025442;28;20025;-63
2023/08/21 01:55:03;;;;;;;5.15;1.20;;;;;;;-142.75;100.00;76708.09;5024973;28;20033;-63
2023/08/21 01:57:29;;;;;;;4.15;1.20;;;;;;;-142.75;100.00;76704.16;5024946;28;20430;-63
2023/08/21 01:59:54;;;;;;;4.00;1.30;;;;;;;-142.75;100.00;76717.94;5024931;28;20059;-63
2023/08/21 02:02:19;;;;;;;5.38;1.17;;;;;;;-142.75;100.00;76727.78;5023878;28;20025;-63
2023/08/21 02:04:45;;;;;;;6.20;1.05;;;;;;;-142.75;100.00;76731.72;5024734;28;20028;-64
2023/08/21 02:07:10;;;;;;;4.57;1.40;;;;;;;-142.75;100.00;76721.88;5025244;28;20060;-63
2023/08/21 02:09:35;;;;;;;4.00;0.90;;;;;;;-142.75;100.00;76723.84;5025027;28;20026;-63
2023/08/21 02:12:01;;;;;;;2.92;1.05;;;;;;;-142.75;100.00;76721.88;5023477;28;20033;-63
2023/08/21 02:14:26;;;;;;;4.50;1.00;;;;;;;-142.75;100.00;76727.78;5024293;28;20025;-64
2023/08/21 02:16:51;;;;;;;2.70;0.80;;;;;;;-142.75;100.00;76731.72;5024858;28;20028;-63
2023/08/21 02:19:17;;;;;;;6.82;1.38;;;;;;;-142.75;100.00;76735.66;5023335;28;20508;-63
2023/08/21 02:21:42;;;;;;;3.53;1.00;;;;;;;-142.75;100.00;76727.78;5025316;28;20079;-63
2023/08/21 02:24:10;;;;;;;7.13;1.25;;;;;;;-142.75;100.00;76739.59;5024720;28;20035;-63
2023/08/21 02:26:35;;;;;;;3.78;0.90;;;;;;;-142.75;100.00;76751.41;5024832;28;20033;-63
2023/08/21 02:29:01;;;;;;;5.07;1.10;;;;;;;-142.75;100.00;76747.47;5024585;28;20025;-63
2023/08/21 02:31:26;;;;;;;1.85;1.00;;;;;;;-142.75;100.00;76737.63;5024419;28;20528;-63
2023/08/21 02:33:51;;;;;;;4.05;1.02;;;;;;;-142.75;100.00;76733.69;5024047;28;20120;-63
2023/08/21 02:36:17;;;;;;;3.00;1.00;;;;;;;-142.75;100.00;76735.66;5024677;28;20014;-63
2023/08/21 02:38:42;;;;;;;2.95;0.82;;;;;;;-142.75;100.00;76727.78;5024920;28;20493;-64
2023/08/21 02:41:07;;;;;;;3.25;1.10;;;;;;;-142.75;100.00;76737.63;5024276;28;20017;-63
2023/08/21 02:43:34;;;;;;;4.43;0.95;;;;;;;-142.75;100.00;76739.59;5024259;28;20028;-63
2023/08/21 02:45:59;;;;;;;4.85;1.40;;;;;;;-142.75;100.00;76733.69;5024143;28;20029;-63
2023/08/21 02:48:24;;;;;;;3.58;1.10;;;;;;;-142.75;100.00;76733.69;5024790;28;20036;-63
2023/08/21 02:50:50;;;;;;;3.38;0.88;;;;;;;-142.75;100.00;76735.66;5024755;28;20026;-63
2023/08/21 02:53:15;;;;;;;6.68;1.58;;;;;;;-142.75;100.00;76739.59;5024620;28;20036;-63
2023/08/21 02:55:40;;;;;;;5.97;1.25;;;;;;;-142.75;100.00;76745.50;5024501;28;20477;-63
2023/08/21 02:58:06;;;;;;;8.23;1.90;;;;;;;-142.75;100.00;76735.66;5025226;28;20029;-63
2023/08/21 03:00:31;;;;;;;3.28;1.70;;;;;;;-142.75;100.00;76714.00;5024753;28;20100;-63
2023/08/21 03:02:56;;;;;;;4.25;1.33;;;;;;;-142.75;100.00;76704.16;5024591;28;20032;-63
2023/08/21 03:05:22;;;;;;;4.03;1.60;;;;;;;-142.75;100.00;76692.34;5024498;28;20473;-63
2023/08/21 03:07:47;;;;;;;9.07;1.80;;;;;;;-142.75;100.00;76692.34;5025274;28;20084;-63
2023/08/21 03:10:12;;;;;;;2.70;1.20;;;;;;;-142.75;100.00;76694.31;5024603;28;20044;-63
2023/08/21 03:12:38;;;;;;;4.65;1.13;;;;;;;-142.75;100.00;76700.22;5024367;28;20069;-63
2023/08/21 03:15:04;;;;;;;6.35;1.80;;;;;;;-142.75;100.00;76708.09;5024188;28;20072;-63
2023/08/21 03:17:29;;;;;;;6.97;1.67;;;;;;;-142.75;100.00;76715.97;5024443;28;20435;-63
2023/08/21 03:19:55;;;;;;;4.07;1.15;;;;;;;-142.75;100.00;76723.84;5027010;28;20024;-63
2023/08/21 03:22:21;;;;;;;3.28;1.08;;;;;;;-142.75;100.00;76723.84;5027864;28;20029;-63
2023/08/21 03:24:46;;;;;;;5.93;1.40;;;;;;;-142.75;100.00;76721.88;5027362;28;20112;-63
2023/08/21 03:27:13;;;;;;;2.67;1.40;;;;;;;-142.75;100.00;76723.84;5027668;28;20087;-63
2023/08/21 03:29:39;;;;;;;3.92;1.35;;;;;;;-142.75;100.00;76725.81;5027796;28;20665;-63
2023/08/21 03:32:05;;;;;;;4.95;1.30;;;;;;;-142.75;100.00;76731.72;5028005;28;20061;-63
2023/08/21 03:34:30;;;;;;;5.07;1.60;;;;;;;-142.75;100.00;76733.69;5027318;28;20048;-63
2023/08/21 03:36:55;;;;;;;5.35;1.30;;;;;;;-142.75;100.00;76712.03;5028151;28;20010;-63
2023/08/21 03:39:21;;;;;;;5.10;1.88;;;;;;;-142.75;100.00;76706.13;5027879;28;20121;-63
2023/08/21 03:41:46;;;;;;;5.40;1.58;;;;;;;-142.75;100.00;76676.59;5027346;28;20087;-63
2023/08/21 03:44:11;;;;;;;6.43;1.33;;;;;;;-142.75;100.00;76668.72;5027319;28;20116;-63
2023/08/21 03:46:37;;;;;;;4.72;1.55;;;;;;;-142.75;100.00;76660.84;5027716;28;20021;-63
2023/08/21 03:49:02;;;;;;;3.75;1.50;;;;;;;-142.75;100.00;76656.91;5027773;28;20481;-63
2023/08/21 03:51:27;;;;;;;5.10;2.22;;;;;;;-142.75;100.00;76649.03;5027320;28;20116;-63
2023/08/21 03:53:53;;;;;;;3.95;1.65;;;;;;;-142.75;100.00;76637.22;5027155;28;20021;-64
2023/08/21 03:56:19;;;;;;;4.80;1.67;;;;;;;-142.75;100.00;76635.25;5027124;28;20052;-64
2023/08/21 03:58:44;;;;;;;3.08;1.20;;;;;;;-142.75;100.00;76641.16;5027364;28;20487;-64
2023/08/21 04:01:10;;;;;;;5.82;1.58;;;;;;;-142.75;100.00;76651.00;5027201;28;20096;-61
2023/08/21 04:03:35;;;;;;;4.90;1.42;;;;;;;-142.75;100.00;76649.03;5027303;28;20028;-64
2023/08/21 04:06:01;;;;;;;6.38;1.27;;;;;;;-142.75;100.00;76660.84;5027073;28;20107;-63
2023/08/21 04:08:27;;;;;;;4.07;1.63;;;;;;;-142.75;100.00;76668.72;5027458;28;20110;-64
2023/08/21 04:10:59;;;;;;;5.13;1.25;;;;;;;-142.75;100.00;76674.63;5026747;28;20132;-62
2023/08/21 04:13:24;;;;;;;7.78;1.92;;;;;;;-142.75;100.00;76680.53;5027036;28;20029;-62
2023/08/21 04:15:50;;;;;;;6.88;1.75;;;;;;;-142.75;100.00;76688.41;5026628;28;20044;-62
2023/08/21 04:18:16;;;;;;;6.35;1.35;;;;;;;-142.75;100.00;76684.47;5027060;28;20032;-62
2023/08/21 04:20:41;;;;;;;4.80;1.40;;;;;;;-142.75;100.00;76684.47;5027035;28;20029;-61
2023/08/21 04:23:07;;;;;;;4.38;1.55;;;;;;;-142.75;100.00;76688.41;5027812;28;20033;-62
2023/08/21 04:25:32;;;;;;;5.32;1.58;;;;;;;-142.75;100.00;76690.38;5034277;28;20136;-62
2023/08/21 04:27:57;;;;;;;4.47;1.38;;;;;;;-142.75;100.00;76688.41;5043880;28;20119;-62
2023/08/21 04:30:23;;;;;;;5.85;1.85;;;;;;;-142.75;100.00;76694.31;5037477;28;20112;-62
2023/08/21 04:32:48;;;;;;;5.30;1.40;;;;;;;-142.75;100.00;76692.34;5046510;28;20381;-62
2023/08/21 04:35:14;;;;;;;4.68;1.33;;;;;;;-142.75;100.00;76692.34;5035345;28;20125;-62
2023/08/21 04:37:44;;;;;;;4.35;1.30;;;;;;;-142.75;100.00;76692.34;5044952;28;20048;-62
2023/08/21 04:40:10;;;;;;;3.88;1.40;;;;;;;-142.75;100.00;76694.31;5043844;28;20663;-62
2023/08/21 04:42:36;;;;;;;4.30;1.27;;;;;;;-142.75;100.00;76692.34;5026981;28;20497;-62
2023/08/21 04:45:02;;;;;;;5.10;1.50;;;;;;;-142.75;100.00;76708.09;5026824;28;20040;-62
2023/08/21 04:47:28;;;;;;;9.88;2.00;;;;;;;-142.75;100.00;76719.91;5039396;28;20036;-62
2023/08/21 04:49:54;;;;;;;7.53;1.80;;;;;;;-142.75;100.00;76710.06;5037428;28;20021;-62
2023/08/21 04:52:21;;;;;;;6.97;1.67;;;;;;;-142.75;100.00;76717.94;5046485;28;20660;-62
2023/08/21 04:54:47;;;;;;;9.85;2.00;;;;;;;-142.75;100.00;76721.88;5045947;28;20032;-62
2023/08/21 04:57:13;;;;;;;6.90;1.73;;;;;;;-142.75;100.00;76717.94;5046445;28;20108;-62
2023/08/21 04:59:39;;;;;;;5.32;1.63;;;;;;;-142.75;100.00;76712.03;5034722;28;20060;-62
2023/08/21 05:02:04;;;;;;;9.43;1.77;;;;;;;-142.75;100.00;76702.19;5026870;28;20030;-62
2023/08/21 05:04:29;;;;;;;7.15;1.83;;;;;;;-142.75;100.00;76702.19;5026304;28;20150;-62
2023/08/21 05:06:55;;;;;;;3.70;1.60;;;;;;;-142.75;100.00;76704.16;5026826;28;20029;-62
2023/08/21 05:09:20;;;;;;;7.40;1.80;;;;;;;-142.75;100.00;76708.09;5026478;28;20032;-62
2023/08/21 05:11:46;;;;;;;5.53;1.75;;;;;;;-142.75;100.00;76700.22;5025846;28;20124;-63
2023/08/21 05:14:11;;;;;;;4.20;1.75;;;;;;;-142.75;100.00;76686.44;5029823;28;20021;-62
2023/08/21 05:16:36;;;;;;;4.53;1.48;;;;;;;-142.75;100.00;76688.41;5036151;28;20025;-62
2023/08/21 05:19:02;;;;;;;4.93;1.73;;;;;;;-142.75;100.00;76690.38;5045581;28;20021;-62
2023/08/21 05:21:27;;;;;;;3.97;1.65;;;;;;;-142.75;100.00;76692.34;5045388;28;20060;-62
2023/08/21 05:23:53;;;;;;;5.80;1.40;;;;;;;-142.75;100.00;76692.34;5044839;28;20090;-62
2023/08/21 05:26:19;;;;;;;3.28;1.42;;;;;;;-142.75;100.00;76702.19;5045231;28;20029;-62
2023/08/21 05:28:44;;;;;;;5.88;1.55;;;;;;;-142.75;100.00;76696.28;5045476;28;20032;-62
2023/08/21 05:31:10;;;;;;;5.85;1.52;;;;;;;-142.75;100.00;76690.38;5045508;28;20028;-62
2023/08/21 05:33:35;;;;;;;4.45;1.52;;;;;;;-142.75;100.00;76692.34;5045143;28;20017;-62
2023/08/21 05:36:00;;;;;;;4.50;1.55;;;;;;;-142.75;100.00;76692.34;5045079;28;20476;-62
2023/08/21 05:38:26;;;;;;;7.63;1.67;;;;;;;-142.75;100.00;76692.34;5030248;28;20395;-62
2023/08/21 05:40:51;;;;;;;7.03;1.75;;;;;;;-142.75;100.00;76682.50;5036145;28;20716;-62
2023/08/21 05:43:16;;;;;;;7.07;1.77;;;;;;;-142.75;100.00;76674.63;5035705;28;20083;-62
2023/08/21 05:45:42;;;;;;;6.70;1.65;;;;;;;-142.75;100.00;76676.59;5031877;28;20017;-62
2023/08/21 05:48:07;;;;;;;7.90;1.85;;;;;;;-142.75;100.00;76680.53;5041171;28;20094;-62
2023/08/21 05:50:33;;;;;;;10.05;2.15;;;;;;;-142.75;100.00;76668.72;5035735;28;20111;-62
2023/08/21 05:53:01;;;;;;;7.55;2.05;;;;;;;-142.75;100.00;76668.72;5033339;28;20740;-62
2023/08/21 05:55:26;;;;;;;6.60;1.90;;;;;;;-142.75;100.00;76652.97;5038035;28;20103;-62
2023/08/21 05:57:52;;;;;;;3.17;1.50;;;;;;;-142.75;100.00;76637.22;5044702;28;20032;-63
2023/08/21 06:00:17;;;;;;;2.85;1.00;;;;;;;-142.75;100.00;76625.41;5042029;28;20016;-62
2023/08/21 06:02:43;;;;;;;2.97;1.20;;;;;;;-142.75;100.00;76615.56;5024860;28;20037;-62
2023/08/21 06:05:09;;;;;;;2.88;1.10;;;;;;;-142.75;100.00;76609.66;5032015;28;20027;-62
2023/08/21 06:07:34;;;;;;;6.72;1.50;;;;;;;-142.75;100.00;76597.84;5037352;28;20112;-62
2023/08/21 06:09:59;;;;;;;2.47;1.00;;;;;;;-142.75;100.00;76597.84;5024467;28;20049;-62
2023/08/21 06:12:25;;;;;;;5.63;1.50;;;;;;;-142.75;100.00;76591.94;5025087;28;20025;-62
2023/08/21 06:14:50;;;;;;;5.78;2.40;;;;;;;-142.75;100.00;76597.84;5024645;28;20540;-64
2023/08/21 06:17:15;;;;;;;7.90;1.98;;;;;;;-142.75;100.00;76593.91;5044394;28;20020;-62
2023/08/21 06:19:41;;;;;;;6.82;1.95;;;;;;;-142.75;100.00;76584.06;5037258;28;20115;-62
2023/08/21 06:22:07;;;;;;;7.88;1.88;;;;;;;-142.75;100.00;76586.03;5035178;28;20062;-61
2023/08/21 06:24:32;;;;;;;8.23;2.33;;;;;;;-142.75;100.00;76554.53;5044098;28;20021;-63
2023/08/21 06:26:57;;;;;;;11.30;2.60;;;;;;;-142.75;100.00;76556.50;5044325;28;20021;-62
2023/08/21 06:29:24;;;;;;;10.25;2.78;;;;;;;-142.75;100.00;76550.59;5042151;28;20403;-62
2023/08/21 06:31:49;;;;;;;9.95;2.88;;;;;;;-142.75;100.00;76538.78;5044124;28;20029;-63
2023/08/21 06:34:15;;;;;;;10.73;2.47;;;;;;;-142.75;100.00;76530.91;5044630;28;20027;-63
2023/08/21 06:36:40;;;;;;;6.43;2.47;;;;;;;-142.75;100.00;76523.06;5044647;28;20052;-64
2023/08/21 06:39:05;;;;;;;7.47;2.53;;;;;;;-142.75;100.00;76525.03;5045468;28;20476;-64
2023/08/21 06:41:31;;;;;;;7.90;2.53;;;;;;;-142.75;100.00;76509.28;5044879;28;20033;-63
2023/08/21 06:43:57;;;;;;;11.32;3.03;;;;;;;-142.75;100.00;76477.78;5044666;28;20035;-63
2023/08/21 06:46:23;;;;;;;10.45;2.45;;;;;;;-142.75;100.00;76460.06;5044950;28;20036;-63
2023/08/21 06:48:50;;;;;;;8.07;2.50;;;;;;;-142.75;100.00;76438.41;5045183;28;20400;-63
2023/08/21 06:51:15;;;;;;;6.95;3.15;;;;;;;-142.75;100.00;76430.53;5044920;28;20021;-63
2023/08/21 06:53:41;;;;;;;5.18;1.88;;;;;;;-142.75;100.00;76387.22;5045264;28;20051;-63
2023/08/21 06:56:06;;;;;;;6.80;2.10;;;;;;;-142.75;100.00;76381.31;5037895;28;20028;-63
2023/08/21 06:58:32;;;;;;;10.13;2.08;;;;;;;-142.75;100.00;76357.69;5033907;28;20029;-63
2023/08/21 07:00:57;;;;;;;8.00;2.70;;;;;;;-142.75;100.00;76363.59;5037450;28;20072;-63
2023/08/21 07:03:23;;;;;;;14.13;2.30;;;;;;;-142.75;100.00;76359.66;5040354;28;20151;-63
2023/08/21 07:05:57;;;;;;;10.23;2.70;;;;;;;-142.75;100.00;76363.59;5039980;28;20149;-63
2023/08/21 07:08:24;;;;;;;8.48;2.30;;;;;;;-142.75;100.00;76371.47;5040429;28;20481;-63
2023/08/21 07:10:50;;;;;;;9.80;2.15;;;;;;;-142.75;100.00;76369.50;5045182;28;20033;-63
2023/08/21 07:13:15;;;;;;;6.93;2.00;;;;;;;-142.75;100.00;76359.66;5046054;28;20048;-62
2023/08/21 07:15:41;;;;;;;9.15;1.73;;;;;;;-142.75;100.00;76328.19;5047651;28;20569;-63
2023/08/21 07:18:07;;;;;;;4.93;1.80;;;;;;;-142.75;100.00;76314.41;5036433;28;20018;-64
2023/08/21 07:20:33;;;;;;;5.28;1.90;;;;;;;-142.75;100.00;76318.34;5025427;28;20079;-63
2023/08/21 07:22:59;;;;;;;6.75;1.50;;;;;;;-142.75;100.00;76294.72;5027488;28;20480;-63
2023/08/21 07:25:25;;;;;;;8.32;1.92;;;;;;;-142.75;100.00;76267.16;5045445;28;20033;-63
2023/08/21 07:27:52;;;;;;;12.80;2.25;;;;;;;-142.75;100.00;76290.78;5048421;28;20480;-63
2023/08/21 07:30:18;;;;;;;7.05;1.67;;;;;;;-142.75;100.00;76265.19;5048492;28;20504;-63
2023/08/21 07:32:44;;;;;;;9.32;2.05;;;;;;;-142.75;100.00;76249.44;5048149;28;20031;-63
2023/08/21 07:35:10;;;;;;;6.25;1.98;;;;;;;-142.75;100.00;76229.75;5048144;28;20043;-63
2023/08/21 07:37:36;;;;;;;8.93;2.35;;;;;;;-142.75;100.00;76210.06;5048325;28;20082;-63
2023/08/21 07:40:01;;;;;;;5.90;1.75;;;;;;;-142.75;100.00;76188.44;5021568;28;20029;-63
2023/08/21 07:42:27;;;;;;;6.55;2.22;;;;;;;-142.75;100.00;76196.31;5027651;28;20049;-63
2023/08/21 07:44:52;;;;;;;7.70;2.13;;;;;;;-142.75;100.00;76156.94;5026116;28;20642;-63
2023/08/21 07:47:18;;;;;;;10.43;2.80;;;;;;;-142.75;100.00;76188.44;5026119;28;20029;-63
2023/08/21 07:49:43;;;;;;;8.23;2.10;;;;;;;-142.75;100.00;76176.63;5027639;28;20040;-63
2023/08/21 07:52:08;;;;;;;9.73;2.20;;;;;;;-142.75;100.00;76170.72;5025836;28;20033;-63
2023/08/21 07:54:34;;;;;;;6.35;1.50;;;;;;;-142.75;100.00;76166.78;5026225;28;20065;-63
2023/08/21 07:56:59;;;;;;;6.93;1.92;;;;;;;-142.75;100.00;76129.38;5030235;28;20025;-63
2023/08/21 07:59:25;;;;;;;8.45;1.90;;;;;;;-142.75;100.00;76151.03;5025560;28;20021;-63
2023/08/21 08:01:50;;;;;;;4.80;1.52;;;;;;;-142.75;100.00;76139.22;5025597;28;20025;-63
2023/08/21 08:04:16;;;;;;;6.03;1.30;;;;;;;-142.75;100.00;76133.31;5025447;28;20037;-63
2023/08/21 08:06:42;;;;;;;7.22;2.00;;;;;;;-142.75;100.00;76123.47;5027228;28;20009;-63
2023/08/21 08:09:07;;;;;;;7.60;1.90;;;;;;;-142.75;100.00;76107.72;5024567;28;20084;-62
2023/08/21 08:11:33;;;;;;;11.20;2.03;;;;;;;-142.75;100.00;76115.59;5020276;28;20029;-63
2023/08/21 08:13:58;;;;;;;8.50;2.20;;;;;;;-142.75;100.00;76117.56;5023593;28;20440;-63
2023/08/21 08:16:24;;;;;;;7.35;2.00;;;;;;;-142.75;100.00;76091.97;5027034;28;20026;-63
2023/08/21 08:18:49;;;;;;;7.82;2.08;;;;;;;-142.75;100.00;76119.53;5024388;28;20052;-63
2023/08/21 08:21:15;;;;;;;6.95;2.22;;;;;;;-142.75;100.00;76105.75;5024922;28;20052;-63
2023/08/21 08:23:40;;;;;;;9.60;2.70;;;;;;;-142.75;100.00;76101.81;5024029;28;20144;-63
2023/08/21 08:26:05;;;;;;;9.75;2.88;;;;;;;-142.75;100.00;76062.47;5024194;28;20075;-63
2023/08/21 08:28:31;;;;;;;6.78;2.28;;;;;;;-142.75;100.00;76050.66;5026215;28;20052;-63
2023/08/21 08:30:57;;;;;;;10.02;2.88;;;;;;;-142.75;100.00;76042.78;5026126;28;20100;-63
2023/08/21 08:33:23;;;;;;;6.80;1.92;;;;;;;-142.75;100.00;76042.78;5026882;28;20022;-63
2023/08/21 08:35:48;;;;;;;6.35;2.22;;;;;;;-142.75;100.00;76034.91;5034399;28;20029;-63
2023/08/21 08:38:14;;;;;;;6.95;2.22;;;;;;;-142.75;100.00;76034.91;5046361;28;20025;-64
2023/08/21 08:40:46;;;;;;;7.03;1.90;;;;;;;-142.75;100.00;76009.31;5024790;28;20033;-63
2023/08/21 08:43:13;;;;;;;9.35;2.25;;;;;;;-142.75;100.00;75999.47;5029024;28;20025;-63
2023/08/21 08:45:41;;;;;;;7.25;2.45;;;;;;;-142.75;100.00;75985.69;5030255;28;20033;-63
2023/08/21 08:48:07;;;;;;;5.50;1.40;;;;;;;-142.75;100.00;75977.81;5033718;28;20025;-63
2023/08/21 08:50:34;;;;;;;10.98;2.42;;;;;;;-142.75;100.00;75956.19;5027930;28;20025;-63
2023/08/21 08:53:00;;;;;;;5.32;1.45;;;;;;;-142.75;100.00;75950.28;5027526;28;20076;-63
2023/08/21 08:55:26;;;;;;;7.35;1.85;;;;;;;-142.75;100.00;75956.19;5024307;28;20649;-63
2023/08/21 08:57:53;;;;;;;10.48;3.28;;;;;;;-142.75;100.00;75946.34;5027448;28;20053;-63
2023/08/21 09:00:19;;;;;;;7.63;1.73;;;;;;;-142.75;100.00;75932.56;5026639;28;20025;-63
2023/08/21 09:02:45;;;;;;;8.40;2.00;;;;;;;-142.75;100.00;75936.50;5027443;28;20557;-63
2023/08/21 09:05:10;;;;;;;6.00;1.75;;;;;;;-142.75;100.00;75918.78;5027709;28;20100;-62
2023/08/21 09:07:36;;;;;;;5.15;1.55;;;;;;;-142.75;100.00;75893.19;5027504;28;20120;-62
2023/08/21 09:10:02;;;;;;;5.05;1.52;;;;;;;-142.75;100.00;75877.44;5027433;28;20025;-63
2023/08/21 09:12:31;;;;;;;4.57;1.13;;;;;;;-142.75;100.00;75859.72;5025668;28;20037;-62
2023/08/21 09:14:59;;;;;;;4.78;1.33;;;;;;;-142.75;100.00;75857.78;5026016;28;20432;-63
2023/08/21 09:17:25;;;;;;;5.80;1.45;;;;;;;-142.75;100.00;75851.88;5026265;28;20441;-63
2023/08/21 09:19:51;;;;;;;4.07;1.40;;;;;;;-142.75;98.32;75842.03;5027520;28;20095;-63
2023/08/21 09:22:20;;;;;;;6.90;1.65;;;;;;;-142.75;92.52;75845.97;5027623;28;20476;-63
2023/08/21 09:25:08;;;;;;;5.30;1.20;;;;;;;-142.75;93.59;75826.28;5027312;28;20105;-63
2023/08/21 09:27:35;;;;;;;3.85;1.10;;;;;;;-142.75;93.78;75810.53;5031353;28;20813;-63
2023/08/21 09:30:03;;;;;;;4.40;1.13;;;;;;;-142.75;93.91;75794.78;5029891;28;20424;-63
2023/08/21 09:32:29;;;;;;;6.25;1.50;;;;;;;-142.75;94.38;75782.97;5026734;28;20029;-62
2023/08/21 09:34:54;;;;;;;3.25;0.85;;;;;;;-142.75;90.91;75786.91;5026850;28;20022;-63
2023/08/21 09:37:20;;;;;;;6.63;1.38;;;;;;;-142.75;87.55;75806.59;5027027;28;20053;-63
2023/08/21 09:39:46;;;;;;;5.57;1.50;;;;;;;-142.75;89.19;75798.72;5027082;28;20017;-62
2023/08/21 09:42:11;;;;;;;4.63;1.17;;;;;;;-142.75;91.79;75769.19;5025950;28;20489;-62
2023/08/21 09:44:42;;;;;;;4.95;1.25;;;;;;;-142.75;87.05;75751.50;5026163;28;20105;-63
2023/08/21 09:47:12;;;;;;;3.63;1.00;;;;;;;-142.75;86.32;75741.66;5027492;28;20024;-62
2023/08/21 09:49:39;;;;;;;6.57;1.30;;;;;;;-142.75;88.36;75739.69;5025596;28;20025;-62
2023/08/21 09:52:11;;;;;;;4.53;1.33;;;;;;;-142.75;87.34;75720.00;5023171;28;20018;-63
2023/08/21 09:54:38;;;;;;;2.90;1.08;;;;;;;-142.75;87.86;75782.97;5022037;28;20029;-63
2023/08/21 09:57:04;;;;;;;7.55;1.23;;;;;;;-142.75;84.64;75761.34;5022527;28;20614;-63
2023/08/21 09:59:31;;;;;;;3.28;1.00;;;;;;;-142.75;84.33;75743.63;5022007;28;20033;-62
2023/08/21 10:01:58;;;;;;;3.67;0.82;;;;;;;-142.75;82.24;75729.84;5026618;28;20021;-63
2023/08/21 10:04:25;;;;;;;4.95;1.20;;;;;;;-142.75;76.57;75741.66;5025145;28;20397;-63
2023/08/21 10:06:54;;;;;;;4.80;0.90;;;;;;;-142.75;80.10;75759.38;5026592;28;20032;-62
2023/08/21 10:09:21;;;;;;;2.47;0.98;;;;;;;-142.75;84.21;75751.50;5027026;28;20025;-62
2023/08/21 10:11:47;;;;;;;3.80;1.17;;;;;;;-142.75;80.78;75775.09;5026884;28;20033;-62
2023/08/21 10:14:13;;;;;;;4.00;1.10;;;;;;;-142.75;85.97;75731.81;5024825;28;20372;-62
2023/08/21 10:16:39;;;;;;;4.47;1.20;;;;;;;-142.75;83.85;75723.94;5024972;28;20500;-62
2023/08/21 10:19:09;;;;;;;3.95;1.10;;;;;;;-142.75;80.00;75735.75;5026983;28;20393;-63
2023/08/21 10:21:37;;;;;;;3.90;1.27;;;;;;;-142.75;81.12;75714.09;5026774;28;20087;-63
2023/08/21 10:24:02;;;;;;;4.03;0.93;;;;;;;-142.75;82.78;75682.59;5026932;28;20026;-64
2023/08/21 10:26:28;;;;;;;3.03;0.95;;;;;;;-142.75;83.70;75672.78;5026317;28;20043;-63
2023/08/21 10:28:55;;;;;;;4.43;1.10;;;;;;;-142.75;84.29;75651.13;5026047;28;20033;-63
2023/08/21 10:31:28;;;;;;;3.70;1.02;;;;;;;-142.75;83.72;75631.44;5025716;28;20030;-63
2023/08/21 10:33:54;;;;;;;4.05;1.30;;;;;;;-142.75;81.74;75625.53;5022018;28;20591;-62
2023/08/21 10:36:38;;;;;;;5.32;1.05;;;;;;;-142.75;83.35;75621.59;5024687;28;20037;-63
2023/08/21 10:39:12;;;;;;;4.53;1.10;;;;;;;-142.75;85.53;75592.09;5031899;28;20025;-63
2023/08/21 10:41:37;;;;;;;3.92;0.90;;;;;;;-142.75;83.11;75633.41;5024514;28;20063;-63
2023/08/21 10:44:06;;;;;;;2.95;0.90;;;;;;;-142.75;82.26;75629.47;5025965;28;20082;-63
2023/08/21 10:46:50;;;;;;;5.13;1.08;;;;;;;-142.75;83.20;75615.69;5026237;28;20052;-64
2023/08/21 10:49:15;;;;;;;4.00;1.00;;;;;;;-142.75;81.98;75597.97;5025064;28;20021;-63
2023/08/21 10:51:43;;;;;;;6.32;1.30;;;;;;;-142.75;79.23;75584.22;5026308;28;20033;-63
2023/08/21 10:54:13;;;;;;;7.75;1.42;;;;;;;-142.75;80.28;75574.38;5026504;28;20018;-63
2023/08/21 10:56:38;;;;;;;5.40;1.65;;;;;;;-142.75;77.45;75603.88;5026271;28;20116;-63
2023/08/21 10:59:03;;;;;;;2.08;0.55;;;;;;;-142.75;79.84;75576.34;5026351;28;20436;-63
2023/08/21 11:01:44;;;;;;;3.95;1.02;;;;;;;-142.75;79.16;75564.53;5025849;28;20408;-63
2023/08/21 11:04:14;;;;;;;3.03;0.80;;;;;;;-142.75;77.40;75535.00;5025769;28;20034;-63
2023/08/21 11:06:39;;;;;;;2.90;0.90;;;;;;;-142.75;76.95;75544.84;5026207;28;20032;-63